sensor_id;sensor_type;location;lat;lon;timestamp;P1;durP1;ratioP1;P2;durP2;ratioP2
62149;SDS011;48134;53.586;10.610;2024-02-26T00:00:49;6.97;;;2.35;;
62149;SDS011;48134;53.586;10.610;2024-02-26T00:03:22;4.55;;;2.13;;
62149;SDS011;48134;53.586;10.610;2024-02-26T00:05:55;4.10;;;2.20;;
62149;SDS011;48134;53.586;10.610;2024-02-26T00:08:23;5.63;;;2.38;;
62149;SDS011;48134;53.586;10.610;2024-02-26T00:10:56;4.43;;;2.10;;
62149;SDS011;48134;53.586;10.610;2024-02-26T00:13:30;4.20;;;2.22;;
62149;SDS011;48134;53.586;10.610;2024-02-26T00:15:59;5.63;;;2.47;;
62149;SDS011;48134;53.586;10.610;2024-02-26T00:18:33;4.88;;;2.50;;
62149;SDS011;48134;53.586;10.610;2024-02-26T00:21:06;5.00;;;2.43;;
62149;SDS011;48134;53.586;10.610;2024-02-26T00:23:34;4.53;;;2.53;;
62149;SDS011;48134;53.586;10.610;2024-02-26T00:26:08;4.25;;;2.30;;
62149;SDS011;48134;53.586;10.610;2024-02-26T00:28:42;7.90;;;2.67;;
62149;SDS011;48134;53.586;10.610;2024-02-26T00:31:12;5.57;;;3.00;;
62149;SDS011;48134;53.586;10.610;2024-02-26T00:33:45;6.40;;;3.15;;
62149;SDS011;48134;53.586;10.610;2024-02-26T00:36:18;4.97;;;2.90;;
62149;SDS011;48134;53.586;10.610;2024-02-26T00:38:51;6.20;;;3.00;;
62149;SDS011;48134;53.586;10.610;2024-02-26T00:41:25;5.55;;;2.85;;
62149;SDS011;48134;53.586;10.610;2024-02-26T00:43:58;6.00;;;2.90;;
62149;SDS011;48134;53.586;10.610;2024-02-26T00:46:33;5.32;;;2.95;;
62149;SDS011;48134;53.586;10.610;2024-02-26T00:49:06;6.10;;;3.08;;
62149;SDS011;48134;53.586;10.610;2024-02-26T00:51:34;6.47;;;3.35;;
62149;SDS011;48134;53.586;10.610;2024-02-26T00:54:08;5.95;;;3.25;;
62149;SDS011;48134;53.586;10.610;2024-02-26T00:56:41;5.80;;;3.20;;
62149;SDS011;48134;53.586;10.610;2024-02-26T00:59:09;5.70;;;3.30;;
62149;SDS011;48134;53.586;10.610;2024-02-26T01:01:44;6.55;;;3.40;;
62149;SDS011;48134;53.586;10.610;2024-02-26T01:04:17;6.93;;;3.30;;
62149;SDS011;48134;53.586;10.610;2024-02-26T01:06:50;9.63;;;3.67;;
62149;SDS011;48134;53.586;10.610;2024-02-26T01:09:21;6.32;;;3.50;;
62149;SDS011;48134;53.586;10.610;2024-02-26T01:11:55;6.60;;;3.67;;
62149;SDS011;48134;53.586;10.610;2024-02-26T01:14:28;5.97;;;3.35;;
62149;SDS011;48134;53.586;10.610;2024-02-26T01:17:06;7.28;;;3.50;;
62149;SDS011;48134;53.586;10.610;2024-02-26T01:19:36;7.10;;;3.72;;
62149;SDS011;48134;53.586;10.610;2024-02-26T01:22:09;6.47;;;3.78;;
62149;SDS011;48134;53.586;10.610;2024-02-26T01:24:43;8.63;;;4.20;;
62149;SDS011;48134;53.586;10.610;2024-02-26T01:27:11;7.20;;;3.97;;
62149;SDS011;48134;53.586;10.610;2024-02-26T01:29:45;7.07;;;3.83;;
62149;SDS011;48134;53.586;10.610;2024-02-26T01:32:20;7.45;;;3.90;;
62149;SDS011;48134;53.586;10.610;2024-02-26T01:34:48;7.20;;;3.97;;
62149;SDS011;48134;53.586;10.610;2024-02-26T01:37:21;7.77;;;4.37;;
62149;SDS011;48134;53.586;10.610;2024-02-26T01:39:50;10.18;;;4.95;;
62149;SDS011;48134;53.586;10.610;2024-02-26T01:42:18;9.15;;;5.20;;
62149;SDS011;48134;53.586;10.610;2024-02-26T01:44:51;7.70;;;4.40;;
62149;SDS011;48134;53.586;10.610;2024-02-26T01:47:26;8.38;;;4.82;;
62149;SDS011;48134;53.586;10.610;2024-02-26T01:50:00;9.00;;;5.10;;
62149;SDS011;48134;53.586;10.610;2024-02-26T01:52:33;7.80;;;4.40;;
62149;SDS011;48134;53.586;10.610;2024-02-26T01:55:07;8.02;;;4.72;;
62149;SDS011;48134;53.586;10.610;2024-02-26T01:57:41;8.93;;;5.10;;
62149;SDS011;48134;53.586;10.610;2024-02-26T02:00:16;9.20;;;5.10;;
62149;SDS011;48134;53.586;10.610;2024-02-26T02:02:52;8.35;;;4.70;;
62149;SDS011;48134;53.586;10.610;2024-02-26T02:05:27;8.48;;;4.80;;
62149;SDS011;48134;53.586;10.610;2024-02-26T02:08:01;10.23;;;4.95;;
62149;SDS011;48134;53.586;10.610;2024-02-26T02:10:30;7.93;;;4.57;;
62149;SDS011;48134;53.586;10.610;2024-02-26T02:13:04;9.05;;;4.72;;
62149;SDS011;48134;53.586;10.610;2024-02-26T02:15:37;8.25;;;4.90;;
62149;SDS011;48134;53.586;10.610;2024-02-26T02:18:11;9.98;;;5.38;;
62149;SDS011;48134;53.586;10.610;2024-02-26T02:20:46;10.50;;;5.93;;
62149;SDS011;48134;53.586;10.610;2024-02-26T02:23:19;9.63;;;5.60;;
62149;SDS011;48134;53.586;10.610;2024-02-26T02:25:48;9.03;;;5.37;;
62149;SDS011;48134;53.586;10.610;2024-02-26T02:28:16;19.83;;;5.30;;
62149;SDS011;48134;53.586;10.610;2024-02-26T02:30:50;23.63;;;5.60;;
62149;SDS011;48134;53.586;10.610;2024-02-26T02:33:23;54.45;;;5.10;;
62149;SDS011;48134;53.586;10.610;2024-02-26T02:36:00;56.50;;;5.13;;
62149;SDS011;48134;53.586;10.610;2024-02-26T02:38:28;20.50;;;4.60;;
62149;SDS011;48134;53.586;10.610;2024-02-26T02:41:02;45.90;;;3.90;;
62149;SDS011;48134;53.586;10.610;2024-02-26T02:43:35;50.10;;;4.10;;
62149;SDS011;48134;53.586;10.610;2024-02-26T02:46:08;11.48;;;4.18;;
62149;SDS011;48134;53.586;10.610;2024-02-26T02:48:43;24.75;;;5.10;;
62149;SDS011;48134;53.586;10.610;2024-02-26T02:51:17;21.90;;;5.38;;
62149;SDS011;48134;53.586;10.610;2024-02-26T02:53:51;33.88;;;4.30;;
62149;SDS011;48134;53.586;10.610;2024-02-26T02:56:19;39.53;;;4.37;;
62149;SDS011;48134;53.586;10.610;2024-02-26T02:58:52;120.63;;;5.85;;
62149;SDS011;48134;53.586;10.610;2024-02-26T03:01:25;132.43;;;5.97;;
62149;SDS011;48134;53.586;10.610;2024-02-26T03:03:58;69.47;;;4.95;;
62149;SDS011;48134;53.586;10.610;2024-02-26T03:06:28;60.87;;;4.63;;
62149;SDS011;48134;53.586;10.610;2024-02-26T03:09:01;21.83;;;4.20;;
62149;SDS011;48134;53.586;10.610;2024-02-26T03:11:29;30.00;;;4.70;;
62149;SDS011;48134;53.586;10.610;2024-02-26T03:13:58;16.67;;;4.47;;
62149;SDS011;48134;53.586;10.610;2024-02-26T03:16:31;16.08;;;5.13;;
62149;SDS011;48134;53.586;10.610;2024-02-26T03:18:59;14.73;;;4.70;;
62149;SDS011;48134;53.586;10.610;2024-02-26T03:21:34;11.23;;;4.80;;
62149;SDS011;48134;53.586;10.610;2024-02-26T03:24:02;16.17;;;5.20;;
62149;SDS011;48134;53.586;10.610;2024-02-26T03:26:36;9.13;;;5.13;;
62149;SDS011;48134;53.586;10.610;2024-02-26T03:29:04;9.95;;;5.72;;
62149;SDS011;48134;53.586;10.610;2024-02-26T03:31:37;12.50;;;5.57;;
62149;SDS011;48134;53.586;10.610;2024-02-26T03:34:05;9.98;;;5.57;;
62149;SDS011;48134;53.586;10.610;2024-02-26T03:36:40;9.65;;;5.55;;
62149;SDS011;48134;53.586;10.610;2024-02-26T03:39:13;10.82;;;5.40;;
62149;SDS011;48134;53.586;10.610;2024-02-26T03:41:42;11.77;;;6.95;;
62149;SDS011;48134;53.586;10.610;2024-02-26T03:44:10;11.43;;;6.20;;
62149;SDS011;48134;53.586;10.610;2024-02-26T03:46:43;9.27;;;5.90;;
62149;SDS011;48134;53.586;10.610;2024-02-26T03:49:11;10.77;;;6.18;;
62149;SDS011;48134;53.586;10.610;2024-02-26T03:51:46;9.73;;;5.68;;
62149;SDS011;48134;53.586;10.610;2024-02-26T03:54:19;10.07;;;5.80;;
62149;SDS011;48134;53.586;10.610;2024-02-26T03:56:47;11.57;;;5.93;;
62149;SDS011;48134;53.586;10.610;2024-02-26T03:59:16;10.73;;;6.15;;
62149;SDS011;48134;53.586;10.610;2024-02-26T04:01:49;10.40;;;6.00;;
62149;SDS011;48134;53.586;10.610;2024-02-26T04:04:23;10.82;;;6.25;;
62149;SDS011;48134;53.586;10.610;2024-02-26T04:06:52;10.30;;;6.10;;
62149;SDS011;48134;53.586;10.610;2024-02-26T04:09:25;11.85;;;6.00;;
62149;SDS011;48134;53.586;10.610;2024-02-26T04:11:59;10.70;;;6.10;;
62149;SDS011;48134;53.586;10.610;2024-02-26T04:14:27;10.30;;;6.10;;
62149;SDS011;48134;53.586;10.610;2024-02-26T04:17:01;10.32;;;5.57;;
62149;SDS011;48134;53.586;10.610;2024-02-26T04:19:29;10.48;;;6.30;;
62149;SDS011;48134;53.586;10.610;2024-02-26T04:22:03;9.90;;;5.65;;
62149;SDS011;48134;53.586;10.610;2024-02-26T04:24:37;9.98;;;5.82;;
62149;SDS011;48134;53.586;10.610;2024-02-26T04:27:05;10.95;;;6.22;;
62149;SDS011;48134;53.586;10.610;2024-02-26T04:29:33;10.30;;;6.55;;
62149;SDS011;48134;53.586;10.610;2024-02-26T04:32:01;11.50;;;6.93;;
62149;SDS011;48134;53.586;10.610;2024-02-26T04:34:35;12.65;;;7.30;;
62149;SDS011;48134;53.586;10.610;2024-02-26T04:37:05;10.68;;;6.82;;
62149;SDS011;48134;53.586;10.610;2024-02-26T04:39:38;10.63;;;6.68;;
62149;SDS011;48134;53.586;10.610;2024-02-26T04:42:11;9.75;;;6.18;;
62149;SDS011;48134;53.586;10.610;2024-02-26T04:44:45;10.88;;;6.38;;
62149;SDS011;48134;53.586;10.610;2024-02-26T04:47:19;10.75;;;6.50;;
62149;SDS011;48134;53.586;10.610;2024-02-26T04:49:48;10.68;;;6.60;;
62149;SDS011;48134;53.586;10.610;2024-02-26T04:52:23;10.10;;;6.30;;
62149;SDS011;48134;53.586;10.610;2024-02-26T04:54:56;11.40;;;6.53;;
62149;SDS011;48134;53.586;10.610;2024-02-26T04:57:31;10.48;;;6.13;;
62149;SDS011;48134;53.586;10.610;2024-02-26T05:00:05;11.20;;;6.15;;
62149;SDS011;48134;53.586;10.610;2024-02-26T05:02:39;10.80;;;6.80;;
62149;SDS011;48134;53.586;10.610;2024-02-26T05:05:13;10.77;;;6.35;;
62149;SDS011;48134;53.586;10.610;2024-02-26T05:07:42;10.18;;;6.10;;
62149;SDS011;48134;53.586;10.610;2024-02-26T05:10:16;11.40;;;6.43;;
62149;SDS011;48134;53.586;10.610;2024-02-26T05:12:44;10.88;;;6.43;;
62149;SDS011;48134;53.586;10.610;2024-02-26T05:15:17;11.13;;;6.30;;
62149;SDS011;48134;53.586;10.610;2024-02-26T05:17:50;11.73;;;6.28;;
62149;SDS011;48134;53.586;10.610;2024-02-26T05:20:24;12.20;;;6.45;;
62149;SDS011;48134;53.586;10.610;2024-02-26T05:22:59;10.50;;;6.18;;
62149;SDS011;48134;53.586;10.610;2024-02-26T05:25:32;12.25;;;6.32;;
62149;SDS011;48134;53.586;10.610;2024-02-26T05:28:05;11.52;;;6.30;;
62149;SDS011;48134;53.586;10.610;2024-02-26T05:30:38;11.75;;;6.22;;
62149;SDS011;48134;53.586;10.610;2024-02-26T05:33:12;10.85;;;6.57;;
62149;SDS011;48134;53.586;10.610;2024-02-26T05:35:46;12.73;;;6.35;;
62149;SDS011;48134;53.586;10.610;2024-02-26T05:38:20;10.90;;;6.10;;
62149;SDS011;48134;53.586;10.610;2024-02-26T05:40:53;10.65;;;6.25;;
62149;SDS011;48134;53.586;10.610;2024-02-26T05:43:22;11.77;;;6.13;;
62149;SDS011;48134;53.586;10.610;2024-02-26T05:45:55;11.00;;;6.13;;
62149;SDS011;48134;53.586;10.610;2024-02-26T05:48:23;11.10;;;6.72;;
62149;SDS011;48134;53.586;10.610;2024-02-26T05:50:51;13.50;;;6.68;;
62149;SDS011;48134;53.586;10.610;2024-02-26T05:53:21;11.48;;;6.63;;
62149;SDS011;48134;53.586;10.610;2024-02-26T05:55:54;9.88;;;6.03;;
62149;SDS011;48134;53.586;10.610;2024-02-26T05:58:22;14.15;;;6.90;;
62149;SDS011;48134;53.586;10.610;2024-02-26T06:00:55;35.65;;;7.03;;
62149;SDS011;48134;53.586;10.610;2024-02-26T06:03:29;10.40;;;6.07;;
62149;SDS011;48134;53.586;10.610;2024-02-26T06:05:57;10.73;;;6.35;;
62149;SDS011;48134;53.586;10.610;2024-02-26T06:08:32;11.57;;;6.65;;
62149;SDS011;48134;53.586;10.610;2024-02-26T06:11:04;11.82;;;6.45;;
62149;SDS011;48134;53.586;10.610;2024-02-26T06:13:38;12.52;;;6.40;;
62149;SDS011;48134;53.586;10.610;2024-02-26T06:16:07;11.60;;;6.70;;
62149;SDS011;48134;53.586;10.610;2024-02-26T06:18:41;13.15;;;6.95;;
62149;SDS011;48134;53.586;10.610;2024-02-26T06:21:14;12.07;;;7.00;;
62149;SDS011;48134;53.586;10.610;2024-02-26T06:23:43;11.65;;;6.72;;
62149;SDS011;48134;53.586;10.610;2024-02-26T06:26:12;11.73;;;6.75;;
62149;SDS011;48134;53.586;10.610;2024-02-26T06:28:45;11.48;;;6.80;;
62149;SDS011;48134;53.586;10.610;2024-02-26T06:31:18;11.05;;;6.55;;
62149;SDS011;48134;53.586;10.610;2024-02-26T06:33:48;10.80;;;6.43;;
62149;SDS011;48134;53.586;10.610;2024-02-26T06:36:21;10.60;;;5.73;;
62149;SDS011;48134;53.586;10.610;2024-02-26T06:38:56;10.82;;;6.50;;
62149;SDS011;48134;53.586;10.610;2024-02-26T06:41:29;10.75;;;6.07;;
62149;SDS011;48134;53.586;10.610;2024-02-26T06:44:02;10.23;;;6.15;;
62149;SDS011;48134;53.586;10.610;2024-02-26T06:46:36;11.00;;;6.20;;
62149;SDS011;48134;53.586;10.610;2024-02-26T06:49:09;9.52;;;5.53;;
62149;SDS011;48134;53.586;10.610;2024-02-26T06:51:42;9.25;;;5.65;;
62149;SDS011;48134;53.586;10.610;2024-02-26T06:54:17;10.45;;;6.00;;
62149;SDS011;48134;53.586;10.610;2024-02-26T06:56:45;10.35;;;5.68;;
62149;SDS011;48134;53.586;10.610;2024-02-26T06:59:18;8.93;;;5.47;;
62149;SDS011;48134;53.586;10.610;2024-02-26T07:01:52;8.98;;;5.20;;
62149;SDS011;48134;53.586;10.610;2024-02-26T07:04:26;9.32;;;5.22;;
62149;SDS011;48134;53.586;10.610;2024-02-26T07:06:54;10.25;;;5.70;;
62149;SDS011;48134;53.586;10.610;2024-02-26T07:09:29;9.73;;;5.53;;
62149;SDS011;48134;53.586;10.610;2024-02-26T07:12:02;8.98;;;5.28;;
62149;SDS011;48134;53.586;10.610;2024-02-26T07:14:35;9.73;;;5.20;;
62149;SDS011;48134;53.586;10.610;2024-02-26T07:17:04;10.10;;;5.80;;
62149;SDS011;48134;53.586;10.610;2024-02-26T07:19:37;10.32;;;5.43;;
62149;SDS011;48134;53.586;10.610;2024-02-26T07:22:11;10.82;;;5.80;;
62149;SDS011;48134;53.586;10.610;2024-02-26T07:24:47;10.43;;;5.68;;
62149;SDS011;48134;53.586;10.610;2024-02-26T07:27:21;9.38;;;5.38;;
62149;SDS011;48134;53.586;10.610;2024-02-26T07:29:54;9.82;;;5.68;;
62149;SDS011;48134;53.586;10.610;2024-02-26T07:32:27;9.77;;;5.60;;
62149;SDS011;48134;53.586;10.610;2024-02-26T07:35:00;8.85;;;5.32;;
62149;SDS011;48134;53.586;10.610;2024-02-26T07:37:33;9.20;;;5.78;;
62149;SDS011;48134;53.586;10.610;2024-02-26T07:40:08;9.07;;;5.53;;
62149;SDS011;48134;53.586;10.610;2024-02-26T07:42:42;9.23;;;5.47;;
62149;SDS011;48134;53.586;10.610;2024-02-26T07:45:10;9.50;;;5.75;;
62149;SDS011;48134;53.586;10.610;2024-02-26T07:47:44;9.45;;;5.70;;
62149;SDS011;48134;53.586;10.610;2024-02-26T07:50:17;9.80;;;5.57;;
62149;SDS011;48134;53.586;10.610;2024-02-26T07:52:53;10.10;;;6.05;;
62149;SDS011;48134;53.586;10.610;2024-02-26T07:55:27;9.57;;;5.67;;
62149;SDS011;48134;53.586;10.610;2024-02-26T07:58:00;10.57;;;5.90;;
62149;SDS011;48134;53.586;10.610;2024-02-26T08:00:34;10.05;;;6.18;;
62149;SDS011;48134;53.586;10.610;2024-02-26T08:03:07;9.40;;;5.78;;
62149;SDS011;48134;53.586;10.610;2024-02-26T08:05:35;9.43;;;5.85;;
62149;SDS011;48134;53.586;10.610;2024-02-26T08:08:11;10.90;;;6.07;;
62149;SDS011;48134;53.586;10.610;2024-02-26T08:10:46;10.25;;;6.40;;
62149;SDS011;48134;53.586;10.610;2024-02-26T08:13:14;11.55;;;6.63;;
62149;SDS011;48134;53.586;10.610;2024-02-26T08:15:47;10.30;;;6.50;;
62149;SDS011;48134;53.586;10.610;2024-02-26T08:18:15;10.77;;;6.70;;
62149;SDS011;48134;53.586;10.610;2024-02-26T08:20:43;11.80;;;6.80;;
62149;SDS011;48134;53.586;10.610;2024-02-26T08:23:17;11.02;;;6.68;;
62149;SDS011;48134;53.586;10.610;2024-02-26T08:25:51;13.20;;;6.97;;
62149;SDS011;48134;53.586;10.610;2024-02-26T08:28:19;12.77;;;7.50;;
62149;SDS011;48134;53.586;10.610;2024-02-26T08:30:52;11.87;;;7.20;;
62149;SDS011;48134;53.586;10.610;2024-02-26T08:33:21;11.40;;;6.93;;
62149;SDS011;48134;53.586;10.610;2024-02-26T08:35:54;11.48;;;6.93;;
62149;SDS011;48134;53.586;10.610;2024-02-26T08:38:27;12.45;;;6.93;;
62149;SDS011;48134;53.586;10.610;2024-02-26T08:40:57;11.40;;;6.97;;
62149;SDS011;48134;53.586;10.610;2024-02-26T08:43:25;12.43;;;7.30;;
62149;SDS011;48134;53.586;10.610;2024-02-26T08:45:58;11.85;;;6.90;;
62149;SDS011;48134;53.586;10.610;2024-02-26T08:48:31;10.77;;;6.10;;
62149;SDS011;48134;53.586;10.610;2024-02-26T08:50:59;11.02;;;6.65;;
62149;SDS011;48134;53.586;10.610;2024-02-26T08:53:33;10.80;;;6.50;;
62149;SDS011;48134;53.586;10.610;2024-02-26T08:56:07;10.45;;;6.68;;
62149;SDS011;48134;53.586;10.610;2024-02-26T08:58:36;14.35;;;6.72;;
62149;SDS011;48134;53.586;10.610;2024-02-26T09:01:04;12.33;;;6.90;;
62149;SDS011;48134;53.586;10.610;2024-02-26T09:03:32;12.27;;;6.90;;
62149;SDS011;48134;53.586;10.610;2024-02-26T09:06:05;11.52;;;6.82;;
62149;SDS011;48134;53.586;10.610;2024-02-26T09:08:39;12.95;;;7.78;;
62149;SDS011;48134;53.586;10.610;2024-02-26T09:11:14;11.55;;;6.90;;
62149;SDS011;48134;53.586;10.610;2024-02-26T09:13:47;12.32;;;7.28;;
62149;SDS011;48134;53.586;10.610;2024-02-26T09:16:20;11.75;;;7.25;;
62149;SDS011;48134;53.586;10.610;2024-02-26T09:18:53;12.15;;;7.25;;
62149;SDS011;48134;53.586;10.610;2024-02-26T09:21:26;11.48;;;7.00;;
62149;SDS011;48134;53.586;10.610;2024-02-26T09:23:59;11.65;;;6.68;;
62149;SDS011;48134;53.586;10.610;2024-02-26T09:26:34;12.52;;;7.38;;
62149;SDS011;48134;53.586;10.610;2024-02-26T09:29:07;10.30;;;6.65;;
62149;SDS011;48134;53.586;10.610;2024-02-26T09:31:41;12.27;;;7.07;;
62149;SDS011;48134;53.586;10.610;2024-02-26T09:34:09;12.10;;;7.40;;
62149;SDS011;48134;53.586;10.610;2024-02-26T09:36:37;12.13;;;7.40;;
62149;SDS011;48134;53.586;10.610;2024-02-26T09:39:10;11.90;;;6.70;;
62149;SDS011;48134;53.586;10.610;2024-02-26T09:41:42;10.93;;;6.70;;
62149;SDS011;48134;53.586;10.610;2024-02-26T09:44:18;10.88;;;6.85;;
62149;SDS011;48134;53.586;10.610;2024-02-26T09:46:53;12.82;;;7.35;;
62149;SDS011;48134;53.586;10.610;2024-02-26T09:49:26;11.87;;;7.03;;
62149;SDS011;48134;53.586;10.610;2024-02-26T09:52:00;11.00;;;6.63;;
62149;SDS011;48134;53.586;10.610;2024-02-26T09:54:35;13.10;;;7.57;;
62149;SDS011;48134;53.586;10.610;2024-02-26T09:57:09;12.15;;;7.80;;
62149;SDS011;48134;53.586;10.610;2024-02-26T09:59:42;12.02;;;7.18;;
62149;SDS011;48134;53.586;10.610;2024-02-26T10:02:16;12.60;;;7.93;;
62149;SDS011;48134;53.586;10.610;2024-02-26T10:04:52;12.32;;;7.43;;
62149;SDS011;48134;53.586;10.610;2024-02-26T10:07:24;12.30;;;7.88;;
62149;SDS011;48134;53.586;10.610;2024-02-26T10:09:53;12.40;;;7.70;;
62149;SDS011;48134;53.586;10.610;2024-02-26T10:12:27;11.48;;;7.30;;
62149;SDS011;48134;53.586;10.610;2024-02-26T10:15:03;14.57;;;8.27;;
62149;SDS011;48134;53.586;10.610;2024-02-26T10:17:31;14.65;;;9.32;;
62149;SDS011;48134;53.586;10.610;2024-02-26T10:20:14;12.88;;;8.45;;
62149;SDS011;48134;53.586;10.610;2024-02-26T10:22:44;14.27;;;8.95;;
62149;SDS011;48134;53.586;10.610;2024-02-26T10:25:13;14.23;;;8.88;;
62149;SDS011;48134;53.586;10.610;2024-02-26T10:27:48;14.70;;;8.55;;
62149;SDS011;48134;53.586;10.610;2024-02-26T10:30:17;14.30;;;9.40;;
62149;SDS011;48134;53.586;10.610;2024-02-26T10:32:51;14.48;;;9.32;;
62149;SDS011;48134;53.586;10.610;2024-02-26T10:35:24;17.27;;;10.02;;
62149;SDS011;48134;53.586;10.610;2024-02-26T10:37:58;18.35;;;10.48;;
62149;SDS011;48134;53.586;10.610;2024-02-26T10:40:31;17.83;;;10.75;;
62149;SDS011;48134;53.586;10.610;2024-02-26T10:43:06;17.43;;;10.63;;
62149;SDS011;48134;53.586;10.610;2024-02-26T10:45:40;19.45;;;11.30;;
62149;SDS011;48134;53.586;10.610;2024-02-26T10:48:09;18.00;;;11.18;;
62149;SDS011;48134;53.586;10.610;2024-02-26T10:50:39;19.40;;;10.60;;
62149;SDS011;48134;53.586;10.610;2024-02-26T10:53:11;17.65;;;11.40;;
62149;SDS011;48134;53.586;10.610;2024-02-26T10:55:48;19.10;;;10.73;;
62149;SDS011;48134;53.586;10.610;2024-02-26T10:58:18;17.33;;;10.52;;
62149;SDS011;48134;53.586;10.610;2024-02-26T11:00:52;20.77;;;11.15;;
62149;SDS011;48134;53.586;10.610;2024-02-26T11:03:26;18.65;;;11.50;;
62149;SDS011;48134;53.586;10.610;2024-02-26T11:05:58;19.50;;;12.07;;
62149;SDS011;48134;53.586;10.610;2024-02-26T11:08:33;18.60;;;11.55;;
62149;SDS011;48134;53.586;10.610;2024-02-26T11:11:03;19.55;;;11.57;;
62149;SDS011;48134;53.586;10.610;2024-02-26T11:13:38;19.15;;;11.75;;
62149;SDS011;48134;53.586;10.610;2024-02-26T11:16:14;19.70;;;11.45;;
62149;SDS011;48134;53.586;10.610;2024-02-26T11:18:44;20.50;;;11.40;;
62149;SDS011;48134;53.586;10.610;2024-02-26T11:21:20;18.03;;;11.10;;
62149;SDS011;48134;53.586;10.610;2024-02-26T11:23:54;16.60;;;9.57;;
62149;SDS011;48134;53.586;10.610;2024-02-26T11:26:27;19.33;;;11.10;;
62149;SDS011;48134;53.586;10.610;2024-02-26T11:29:02;20.35;;;10.60;;
62149;SDS011;48134;53.586;10.610;2024-02-26T11:31:32;23.90;;;12.95;;
62149;SDS011;48134;53.586;10.610;2024-02-26T11:34:06;22.47;;;11.73;;
62149;SDS011;48134;53.586;10.610;2024-02-26T11:36:40;21.23;;;11.20;;
62149;SDS011;48134;53.586;10.610;2024-02-26T11:39:14;19.67;;;10.83;;
62149;SDS011;48134;53.586;10.610;2024-02-26T11:41:43;19.23;;;10.23;;
62149;SDS011;48134;53.586;10.610;2024-02-26T11:44:13;21.73;;;11.82;;
62149;SDS011;48134;53.586;10.610;2024-02-26T11:46:46;21.07;;;11.90;;
62149;SDS011;48134;53.586;10.610;2024-02-26T11:49:31;23.15;;;11.45;;
62149;SDS011;48134;53.586;10.610;2024-02-26T11:52:05;22.45;;;11.70;;
62149;SDS011;48134;53.586;10.610;2024-02-26T11:57:25;21.70;;;11.55;;
62149;SDS011;48134;53.586;10.610;2024-02-26T11:59:56;19.85;;;11.30;;
62149;SDS011;48134;53.586;10.610;2024-02-26T12:02:38;19.85;;;11.57;;
62149;SDS011;48134;53.586;10.610;2024-02-26T12:05:13;19.88;;;11.88;;
62149;SDS011;48134;53.586;10.610;2024-02-26T12:07:48;18.40;;;11.20;;
62149;SDS011;48134;53.586;10.610;2024-02-26T12:10:23;18.98;;;10.70;;
62149;SDS011;48134;53.586;10.610;2024-02-26T12:12:58;20.80;;;11.40;;
62149;SDS011;48134;53.586;10.610;2024-02-26T12:15:36;20.65;;;11.65;;
62149;SDS011;48134;53.586;10.610;2024-02-26T12:18:10;17.70;;;10.70;;
62149;SDS011;48134;53.586;10.610;2024-02-26T12:20:43;18.30;;;9.98;;
62149;SDS011;48134;53.586;10.610;2024-02-26T12:23:14;18.85;;;9.73;;
62149;SDS011;48134;53.586;10.610;2024-02-26T12:25:48;18.67;;;9.80;;
62149;SDS011;48134;53.586;10.610;2024-02-26T12:28:17;17.95;;;10.20;;
62149;SDS011;48134;53.586;10.610;2024-02-26T12:30:46;17.30;;;9.35;;
62149;SDS011;48134;53.586;10.610;2024-02-26T12:33:20;16.17;;;8.73;;
62149;SDS011;48134;53.586;10.610;2024-02-26T12:35:48;15.60;;;8.75;;
62149;SDS011;48134;53.586;10.610;2024-02-26T12:38:22;17.13;;;9.80;;
62149;SDS011;48134;53.586;10.610;2024-02-26T12:40:55;17.50;;;9.82;;
62149;SDS011;48134;53.586;10.610;2024-02-26T12:43:29;17.02;;;9.38;;
62149;SDS011;48134;53.586;10.610;2024-02-26T12:45:59;18.40;;;9.90;;
62149;SDS011;48134;53.586;10.610;2024-02-26T12:48:36;17.17;;;9.52;;
62149;SDS011;48134;53.586;10.610;2024-02-26T12:51:09;15.53;;;7.83;;
62149;SDS011;48134;53.586;10.610;2024-02-26T12:53:43;16.40;;;8.97;;
62149;SDS011;48134;53.586;10.610;2024-02-26T12:56:12;15.73;;;8.60;;
62149;SDS011;48134;53.586;10.610;2024-02-26T12:58:45;16.03;;;8.87;;
62149;SDS011;48134;53.586;10.610;2024-02-26T13:01:16;17.50;;;9.65;;
62149;SDS011;48134;53.586;10.610;2024-02-26T13:03:52;15.77;;;9.27;;
62149;SDS011;48134;53.586;10.610;2024-02-26T13:06:21;15.43;;;8.43;;
62149;SDS011;48134;53.586;10.610;2024-02-26T13:08:56;17.08;;;9.18;;
62149;SDS011;48134;53.586;10.610;2024-02-26T13:11:30;16.13;;;9.00;;
62149;SDS011;48134;53.586;10.610;2024-02-26T13:14:04;18.10;;;9.52;;
62149;SDS011;48134;53.586;10.610;2024-02-26T13:16:39;17.10;;;9.00;;
62149;SDS011;48134;53.586;10.610;2024-02-26T13:19:12;16.38;;;8.93;;
62149;SDS011;48134;53.586;10.610;2024-02-26T13:21:41;17.67;;;9.80;;
62149;SDS011;48134;53.586;10.610;2024-02-26T13:24:14;17.38;;;10.20;;
62149;SDS011;48134;53.586;10.610;2024-02-26T13:26:53;15.85;;;9.05;;
62149;SDS011;48134;53.586;10.610;2024-02-26T13:29:27;19.27;;;10.57;;
62149;SDS011;48134;53.586;10.610;2024-02-26T13:31:56;18.13;;;10.05;;
62149;SDS011;48134;53.586;10.610;2024-02-26T13:34:25;19.45;;;10.73;;
62149;SDS011;48134;53.586;10.610;2024-02-26T13:36:54;18.60;;;10.70;;
62149;SDS011;48134;53.586;10.610;2024-02-26T13:39:27;19.77;;;11.02;;
62149;SDS011;48134;53.586;10.610;2024-02-26T13:41:57;20.50;;;11.17;;
62149;SDS011;48134;53.586;10.610;2024-02-26T13:44:30;20.00;;;10.98;;
62149;SDS011;48134;53.586;10.610;2024-02-26T13:46:59;20.05;;;10.77;;
62149;SDS011;48134;53.586;10.610;2024-02-26T13:49:27;18.85;;;11.23;;
62149;SDS011;48134;53.586;10.610;2024-02-26T13:51:56;23.13;;;12.20;;
62149;SDS011;48134;53.586;10.610;2024-02-26T13:54:29;20.60;;;10.73;;
62149;SDS011;48134;53.586;10.610;2024-02-26T13:57:02;21.83;;;11.40;;
62149;SDS011;48134;53.586;10.610;2024-02-26T13:59:35;21.27;;;11.25;;
62149;SDS011;48134;53.586;10.610;2024-02-26T14:02:12;20.10;;;10.80;;
62149;SDS011;48134;53.586;10.610;2024-02-26T14:04:41;22.50;;;11.13;;
62149;SDS011;48134;53.586;10.610;2024-02-26T14:07:14;21.67;;;10.85;;
62149;SDS011;48134;53.586;10.610;2024-02-26T14:09:43;22.02;;;10.57;;
62149;SDS011;48134;53.586;10.610;2024-02-26T14:12:17;21.25;;;10.60;;
62149;SDS011;48134;53.586;10.610;2024-02-26T14:14:45;18.35;;;9.50;;
62149;SDS011;48134;53.586;10.610;2024-02-26T14:17:21;18.50;;;9.25;;
62149;SDS011;48134;53.586;10.610;2024-02-26T14:19:55;21.90;;;10.43;;
62149;SDS011;48134;53.586;10.610;2024-02-26T14:22:23;21.55;;;10.77;;
62149;SDS011;48134;53.586;10.610;2024-02-26T14:24:53;21.67;;;10.93;;
62149;SDS011;48134;53.586;10.610;2024-02-26T14:27:26;20.80;;;9.90;;
62149;SDS011;48134;53.586;10.610;2024-02-26T14:29:59;25.17;;;11.88;;
62149;SDS011;48134;53.586;10.610;2024-02-26T14:32:29;22.98;;;11.48;;
62149;SDS011;48134;53.586;10.610;2024-02-26T14:34:57;23.17;;;10.98;;
62149;SDS011;48134;53.586;10.610;2024-02-26T14:37:31;27.25;;;12.90;;
62149;SDS011;48134;53.586;10.610;2024-02-26T14:40:04;28.42;;;13.52;;
62149;SDS011;48134;53.586;10.610;2024-02-26T14:42:40;28.00;;;13.47;;
62149;SDS011;48134;53.586;10.610;2024-02-26T14:45:13;27.20;;;13.80;;
62149;SDS011;48134;53.586;10.610;2024-02-26T14:47:49;26.10;;;12.55;;
62149;SDS011;48134;53.586;10.610;2024-02-26T14:50:22;27.20;;;12.48;;
62149;SDS011;48134;53.586;10.610;2024-02-26T14:52:56;27.13;;;12.63;;